Rome, Italy

12:25 AM CEST on September 30, 2016 (GMT +0200)
Ciampino | | Change Station

Elev 344 ft 41.81 °N, 12.58 °E | Updated 35 minutes ago

Partly Cloudy
Partly Cloudy
63 °F
Feels Like 63 °F
N
5
Wind Variable Wind from East

Today
High -- | Low -- °F
--% Chance of Precip.
Yesterday
High -- | Low -- °F
Precip. -- in
Pressure 30.27 in
Visibility 6.2 miles
Clouds Few 1500 ft
Dew Point 59 °F
Humidity 88%
Rainfall 0.00 in
Snow Depth Not available.
7:06 AM 6:53 PM
Waning Crescent, 1% visible
METAR LIRA 292150Z 10004KT 9999 FEW015 17/15 Q1025
Pressure 30.27 in
Visibility 6.2 miles
Clouds Few 1500 ft
Dew Point 59 °F
Humidity 88%
Rainfall 0.00 in
Snow Depth Not available.
7:06 AM 6:53 PM
Waning Crescent, 1% visible
METAR LIRA 292150Z 10004KT 9999 FEW015 17/15 Q1025

10-Day Weather Forecast

×

Almanac

Astronomy

Sep. 30, 2016 Rise Set
Actual Time
Civil Twilight
Nautical Twilight
Astronomical Twilight
Moon
Length of Visible Light
Length of Day
Tomorrow will be .
, % of the Moon is Illuminated

Today's Extremes

Country Highs Country Lows

Community

WunderPhotos

Upload Photos

1,942,591 photos uploaded!

WunderBlog® & News

Nearby

Air Quality

  Air Quality AQ Index Pollutant
Not available.

Snow Depth

Station Depth Elevation

Earthquake Activity

City Distance Mag. Time & Date
Minimum magnitude displayed is 2.5.

Coastal Water Temperatures

Place Temperature

Stations

Nearby Weather Stations

Station Location Temp. Windchill Dew Point Humidity Wind Precip. Elev Updated Type